Time;durP1;ratioP1;P1;durP2;ratioP2;P2;SDS_P1;SDS_P2;PMS_P1;PMS_P2;Temp;Humidity;BMP_temperature;BMP_pressure;BME280_temperature;BME280_humidity;BME280_pressure;Samples;Min_cycle;Max_cycle;Signal;HPM_P1;HPM_P2
2021/11/09 00:00:33;;;;;;;10.63;3.67;;;;;;;;;;5016170;28;20108;-67
2021/11/09 00:03:04;;;;;;;10.30;4.70;;;;;;;;;;5029588;28;20132;-68
2021/11/09 00:05:32;;;;;;;11.77;4.47;;;;;;;;;;5030325;28;20077;-67
2021/11/09 00:08:03;;;;;;;7.20;3.47;;;;;;;;;;5030690;28;20045;-67
2021/11/09 00:10:32;;;;;;;8.00;4.53;;;;;;;;;;5030963;28;20108;-68
2021/11/09 00:13:02;;;;;;;10.43;4.90;;;;;;;;;;5029610;28;20203;-67
2021/11/09 00:15:31;;;;;;;8.32;4.18;;;;;;;;;;5030081;28;20464;-68
2021/11/09 00:18:02;;;;;;;9.60;4.85;;;;;;;;;;5029362;28;20049;-67
2021/11/09 00:20:32;;;;;;;7.90;3.60;;;;;;;;;;5028143;28;20057;-67
2021/11/09 00:23:02;;;;;;;12.90;4.50;;;;;;;;;;5042453;28;20106;-67
2021/11/09 00:25:30;;;;;;;11.65;4.30;;;;;;;;;;5030331;28;20045;-67
2021/11/09 00:28:00;;;;;;;8.52;4.53;;;;;;;;;;5029919;28;20441;-68
2021/11/09 00:30:29;;;;;;;10.45;5.18;;;;;;;;;;5029646;28;20765;-68
2021/11/09 00:32:58;;;;;;;10.95;4.43;;;;;;;;;;5028890;28;20555;-68
2021/11/09 00:35:28;;;;;;;9.85;4.22;;;;;;;;;;5029805;28;20045;-69
2021/11/09 00:37:56;;;;;;;8.32;4.43;;;;;;;;;;5029280;28;20072;-69
2021/11/09 00:40:27;;;;;;;12.13;4.28;;;;;;;;;;5029992;28;20558;-68
2021/11/09 00:42:55;;;;;;;10.30;4.28;;;;;;;;;;5026393;28;20044;-69
2021/11/09 00:45:25;;;;;;;7.70;3.60;;;;;;;;;;5029031;28;20450;-68
2021/11/09 00:47:53;;;;;;;15.35;4.20;;;;;;;;;;5029666;28;20056;-68
2021/11/09 00:50:23;;;;;;;12.45;4.43;;;;;;;;;;5029059;28;20096;-67
2021/11/09 00:52:52;;;;;;;10.63;3.75;;;;;;;;;;5028584;28;20076;-68
2021/11/09 00:55:20;;;;;;;10.63;4.60;;;;;;;;;;5029638;28;20119;-67
2021/11/09 00:57:49;;;;;;;10.23;4.60;;;;;;;;;;5024284;28;20053;-69
2021/11/09 01:00:19;;;;;;;11.68;4.38;;;;;;;;;;5029420;28;20049;-67
2021/11/09 01:02:49;;;;;;;7.82;4.32;;;;;;;;;;5035808;28;20076;-67
2021/11/09 01:05:22;;;;;;;9.02;4.55;;;;;;;;;;5040138;28;20049;-67
2021/11/09 01:07:51;;;;;;;12.75;4.32;;;;;;;;;;5029219;28;20049;-67
2021/11/09 01:10:19;;;;;;;11.55;4.63;;;;;;;;;;5028863;28;20091;-68
2021/11/09 01:12:47;;;;;;;11.80;3.65;;;;;;;;;;5027860;28;20053;-67
2021/11/09 01:15:16;;;;;;;11.40;4.53;;;;;;;;;;5028361;28;20095;-67
2021/11/09 01:17:44;;;;;;;11.93;4.43;;;;;;;;;;5029859;28;20042;-67
2021/11/09 01:20:15;;;;;;;12.68;4.35;;;;;;;;;;5028728;28;20057;-68
2021/11/09 01:22:46;;;;;;;10.32;4.57;;;;;;;;;;5028855;28;20481;-67
2021/11/09 01:25:15;;;;;;;9.52;4.57;;;;;;;;;;5028938;28;20037;-67
2021/11/09 01:27:43;;;;;;;10.82;4.13;;;;;;;;;;5029241;28;20095;-67
2021/11/09 01:30:13;;;;;;;9.20;4.32;;;;;;;;;;5029103;28;20100;-70
2021/11/09 01:32:52;;;;;;;10.60;5.15;;;;;;;;;;3371228;28;10021976;-67
2021/11/09 01:35:23;;;;;;;13.68;4.75;;;;;;;;;;2250319;28;10001934;-67
2021/11/09 01:37:52;;;;;;;9.85;4.28;;;;;;;;;;5029364;28;20050;-67
2021/11/09 01:40:22;;;;;;;8.93;4.60;;;;;;;;;;5028675;28;20076;-68
2021/11/09 01:42:50;;;;;;;13.55;5.18;;;;;;;;;;5029477;28;20053;-68
2021/11/09 01:45:19;;;;;;;14.63;4.93;;;;;;;;;;5028068;28;20091;-67
2021/11/09 01:47:49;;;;;;;12.00;5.18;;;;;;;;;;5029343;28;20057;-67
2021/11/09 01:50:18;;;;;;;10.68;4.88;;;;;;;;;;5030198;28;20099;-67
2021/11/09 01:52:48;;;;;;;10.52;4.65;;;;;;;;;;5028572;28;20100;-67
2021/11/09 01:55:19;;;;;;;9.73;4.57;;;;;;;;;;5028012;28;20091;-67
2021/11/09 01:57:47;;;;;;;10.23;4.57;;;;;;;;;;5030663;28;20057;-67
2021/11/09 02:00:18;;;;;;;10.25;4.30;;;;;;;;;;5032836;28;20103;-67
2021/11/09 02:02:47;;;;;;;7.82;4.15;;;;;;;;;;5032449;28;20118;-69
2021/11/09 02:05:15;;;;;;;15.07;4.97;;;;;;;;;;5031072;28;20488;-68
2021/11/09 02:07:45;;;;;;;10.55;4.63;;;;;;;;;;5031794;28;20084;-68
2021/11/09 02:10:15;;;;;;;12.07;4.68;;;;;;;;;;5025343;28;20511;-67
2021/11/09 02:12:44;;;;;;;8.98;4.35;;;;;;;;;;5027899;28;20107;-68
2021/11/09 02:15:13;;;;;;;11.73;5.00;;;;;;;;;;5021196;28;20045;-68
2021/11/09 02:17:43;;;;;;;9.43;4.78;;;;;;;;;;5018278;28;20045;-68
2021/11/09 02:20:12;;;;;;;11.65;5.07;;;;;;;;;;5029012;28;20148;-68
2021/11/09 02:22:42;;;;;;;12.73;5.15;;;;;;;;;;5032393;28;20099;-68
2021/11/09 02:25:12;;;;;;;10.25;4.40;;;;;;;;;;5031593;28;20080;-68
2021/11/09 02:27:41;;;;;;;12.95;4.85;;;;;;;;;;5032345;28;20119;-68
2021/11/09 02:30:11;;;;;;;8.15;4.53;;;;;;;;;;5030189;28;20401;-67
2021/11/09 02:32:39;;;;;;;9.05;4.85;;;;;;;;;;5031904;28;20076;-67
2021/11/09 02:35:08;;;;;;;11.70;4.43;;;;;;;;;;5030162;28;20451;-68
2021/11/09 02:37:36;;;;;;;11.45;4.70;;;;;;;;;;5023895;28;20186;-67
2021/11/09 02:40:07;;;;;;;9.45;4.82;;;;;;;;;;5027883;28;20167;-67
2021/11/09 02:42:37;;;;;;;14.57;4.88;;;;;;;;;;5032635;28;20061;-67
2021/11/09 02:45:11;;;;;;;16.85;4.75;;;;;;;;;;5031689;28;20115;-67
2021/11/09 02:47:49;;;;;;;12.15;4.68;;;;;;;;;;5032559;28;20077;-68
2021/11/09 02:50:21;;;;;;;8.27;4.15;;;;;;;;;;5032040;28;20508;-67
2021/11/09 02:52:54;;;;;;;10.05;4.53;;;;;;;;;;5031742;28;20045;-67
2021/11/09 02:55:30;;;;;;;10.43;4.90;;;;;;;;;;5027610;28;20132;-68
2021/11/09 02:58:07;;;;;;;9.82;4.22;;;;;;;;;;5031152;28;20127;-68
2021/11/09 03:00:42;;;;;;;10.55;4.35;;;;;;;;;;5028425;28;20128;-70
2021/11/09 03:03:15;;;;;;;13.05;4.55;;;;;;;;;;5035425;28;20524;-67
2021/11/09 03:05:48;;;;;;;10.95;4.65;;;;;;;;;;5032124;28;20404;-67
2021/11/09 03:08:25;;;;;;;12.15;4.53;;;;;;;;;;5030965;28;20140;-67
2021/11/09 03:10:55;;;;;;;7.85;4.18;;;;;;;;;;5031906;28;20107;-68
2021/11/09 03:13:24;;;;;;;8.98;4.97;;;;;;;;;;5029747;28;20176;-67
2021/11/09 03:15:54;;;;;;;11.02;4.80;;;;;;;;;;5031679;28;20412;-70
2021/11/09 03:18:25;;;;;;;9.52;4.75;;;;;;;;;;5022567;28;20049;-68
2021/11/09 03:20:58;;;;;;;9.98;5.00;;;;;;;;;;5013519;28;20085;-67
2021/11/09 03:40:14;;;;;;;11.02;4.55;;;;;;;;;;5027501;28;20296;-68
2021/11/09 03:45:31;;;;;;;13.73;5.07;;;;;;;;;;5027507;28;20149;-67
2021/11/09 03:48:04;;;;;;;9.68;4.78;;;;;;;;;;5028222;28;20088;-68
2021/11/09 03:50:34;;;;;;;9.40;4.85;;;;;;;;;;5028511;28;20093;-69
2021/11/09 03:53:06;;;;;;;11.00;4.15;;;;;;;;;;5026481;28;20072;-67
2021/11/09 03:55:42;;;;;;;11.30;4.70;;;;;;;;;;5028275;28;20048;-68
2021/11/09 03:58:18;;;;;;;14.65;4.82;;;;;;;;;;5026884;28;20124;-67
2021/11/09 04:00:50;;;;;;;12.52;5.65;;;;;;;;;;5026586;28;20549;-68
2021/11/09 04:03:29;;;;;;;10.15;5.05;;;;;;;;;;5027200;28;20050;-68
2021/11/09 04:06:05;;;;;;;14.68;4.95;;;;;;;;;;5026239;28;20448;-68
2021/11/09 04:08:40;;;;;;;16.45;5.25;;;;;;;;;;5029553;28;20696;-67
2021/11/09 04:11:14;;;;;;;13.13;5.68;;;;;;;;;;5030493;28;20176;-67
2021/11/09 04:13:49;;;;;;;10.80;4.93;;;;;;;;;;5029624;28;20107;-68
2021/11/09 04:16:33;;;;;;;13.15;5.80;;;;;;;;;;5028931;28;20481;-68
2021/11/09 04:19:12;;;;;;;13.32;5.07;;;;;;;;;;5018462;28;20058;-67
2021/11/09 04:30:26;;;;;;;7.05;4.50;;;;;;;;;;5029617;28;20050;-68
2021/11/09 04:50:21;;;;;;;9.52;4.90;;;;;;;;;;4970867;28;20057;-67
2021/11/09 05:01:32;;;;;;;7.65;4.40;;;;;;;;;;5018799;28;20053;-68
2021/11/09 05:09:36;;;;;;;11.52;5.30;;;;;;;;;;5036065;28;20175;-67
2021/11/09 05:12:05;;;;;;;11.00;4.97;;;;;;;;;;5030444;28;20146;-68
2021/11/09 05:14:34;;;;;;;11.73;4.88;;;;;;;;;;5026353;28;20156;-67
2021/11/09 05:17:02;;;;;;;8.73;4.57;;;;;;;;;;5028949;28;20132;-68
2021/11/09 05:19:32;;;;;;;10.65;5.45;;;;;;;;;;5029860;28;20136;-67
2021/11/09 05:22:01;;;;;;;12.75;5.28;;;;;;;;;;5028720;28;20128;-67
2021/11/09 05:24:30;;;;;;;10.57;4.72;;;;;;;;;;5028711;28;20085;-68
2021/11/09 05:26:58;;;;;;;11.25;4.85;;;;;;;;;;5028196;28;20455;-68
2021/11/09 05:29:26;;;;;;;12.35;4.38;;;;;;;;;;5029747;28;20059;-67
2021/11/09 05:31:58;;;;;;;15.05;5.53;;;;;;;;;;5029499;28;20059;-69
2021/11/09 05:34:29;;;;;;;10.00;5.22;;;;;;;;;;5028875;28;20073;-68
2021/11/09 05:36:59;;;;;;;16.70;6.05;;;;;;;;;;5029096;28;20053;-68
2021/11/09 05:39:32;;;;;;;14.45;5.53;;;;;;;;;;5020859;28;20057;-68
2021/11/09 05:42:02;;;;;;;16.73;6.57;;;;;;;;;;5021163;28;20080;-68
2021/11/09 05:44:30;;;;;;;14.50;5.47;;;;;;;;;;5022862;28;20452;-68
2021/11/09 05:46:58;;;;;;;14.95;5.78;;;;;;;;;;5012032;28;20115;-68
2021/11/09 05:49:27;;;;;;;15.65;6.25;;;;;;;;;;5020436;28;20547;-68
2021/11/09 05:51:55;;;;;;;10.10;5.20;;;;;;;;;;5024563;28;20140;-68
2021/11/09 05:54:25;;;;;;;12.98;5.45;;;;;;;;;;5020771;28;20092;-70
2021/11/09 05:56:53;;;;;;;9.27;5.03;;;;;;;;;;5023582;28;20147;-67
2021/11/09 05:59:22;;;;;;;14.73;5.15;;;;;;;;;;5023520;28;20100;-68
2021/11/09 06:01:50;;;;;;;14.38;5.30;;;;;;;;;;5024404;28;20072;-68
2021/11/09 06:04:19;;;;;;;14.45;5.15;;;;;;;;;;5023767;28;20060;-67
2021/11/09 06:06:47;;;;;;;13.82;5.70;;;;;;;;;;5024715;28;20655;-68
2021/11/09 06:09:15;;;;;;;9.32;4.53;;;;;;;;;;5017498;28;20081;-68
2021/11/09 06:11:45;;;;;;;10.40;4.70;;;;;;;;;;5022527;28;20132;-68
2021/11/09 06:14:13;;;;;;;10.23;5.20;;;;;;;;;;5019554;28;20524;-67
2021/11/09 06:16:41;;;;;;;9.90;3.90;;;;;;;;;;5024799;28;20505;-68
2021/11/09 06:19:10;;;;;;;11.90;5.07;;;;;;;;;;5026059;28;20062;-69
2021/11/09 06:21:38;;;;;;;11.35;4.82;;;;;;;;;;5023372;28;20512;-68
2021/11/09 06:24:07;;;;;;;10.02;4.30;;;;;;;;;;5033640;28;20102;-68
2021/11/09 06:26:35;;;;;;;8.00;4.22;;;;;;;;;;5023144;28;20073;-68
2021/11/09 06:29:06;;;;;;;9.52;4.60;;;;;;;;;;5024402;28;20249;-68
2021/11/09 06:31:35;;;;;;;9.30;4.30;;;;;;;;;;5005318;28;20137;-68
2021/11/09 06:34:03;;;;;;;7.05;4.07;;;;;;;;;;5016521;28;20498;-68
2021/11/09 06:36:32;;;;;;;9.82;4.45;;;;;;;;;;5024200;28;20046;-68
2021/11/09 06:39:01;;;;;;;8.98;4.80;;;;;;;;;;5027274;28;20085;-67
2021/11/09 06:41:29;;;;;;;10.45;4.28;;;;;;;;;;5025867;28;20050;-67
2021/11/09 06:43:57;;;;;;;11.95;4.85;;;;;;;;;;5026565;28;20144;-69
2021/11/09 06:46:27;;;;;;;13.68;5.13;;;;;;;;;;5027204;28;20520;-68
2021/11/09 06:48:56;;;;;;;9.23;4.78;;;;;;;;;;5031387;28;20137;-68
2021/11/09 06:51:24;;;;;;;10.48;5.03;;;;;;;;;;5031446;28;20240;-67
2021/11/09 06:53:52;;;;;;;10.43;5.10;;;;;;;;;;5030153;28;20136;-67
2021/11/09 06:56:20;;;;;;;12.80;5.35;;;;;;;;;;5031672;28;20132;-67
2021/11/09 06:58:49;;;;;;;10.15;4.93;;;;;;;;;;5032151;28;20053;-67
2021/11/09 07:01:17;;;;;;;10.30;5.50;;;;;;;;;;5030630;28;20133;-67
2021/11/09 07:03:47;;;;;;;10.90;4.43;;;;;;;;;;5031338;28;20050;-67
2021/11/09 07:06:15;;;;;;;8.90;4.18;;;;;;;;;;5032515;28;20477;-67
2021/11/09 07:08:44;;;;;;;10.50;5.18;;;;;;;;;;5031903;28;20124;-68
2021/11/09 07:11:12;;;;;;;11.15;5.30;;;;;;;;;;5031846;28;20208;-67
2021/11/09 07:13:42;;;;;;;11.98;5.60;;;;;;;;;;5031568;28;20495;-67
2021/11/09 07:16:11;;;;;;;11.35;4.53;;;;;;;;;;5031707;28;20073;-67
2021/11/09 07:18:40;;;;;;;11.93;4.53;;;;;;;;;;5030722;28;20077;-67
2021/11/09 07:21:09;;;;;;;19.02;6.25;;;;;;;;;;5031709;28;20576;-67
2021/11/09 07:23:37;;;;;;;16.35;5.60;;;;;;;;;;5030875;28;20497;-67
2021/11/09 07:26:06;;;;;;;13.80;5.18;;;;;;;;;;5030915;28;20416;-67
2021/11/09 07:28:34;;;;;;;14.68;5.57;;;;;;;;;;5030224;28;20141;-68
2021/11/09 07:31:09;;;;;;;14.02;6.25;;;;;;;;;;5027036;28;20069;-67
2021/11/09 07:33:37;;;;;;;16.38;7.22;;;;;;;;;;5028830;28;20128;-67
2021/11/09 07:36:06;;;;;;;13.77;5.95;;;;;;;;;;5030761;28;20049;-67
2021/11/09 07:38:36;;;;;;;13.15;5.43;;;;;;;;;;5023779;28;20085;-69
2021/11/09 07:41:05;;;;;;;12.73;6.88;;;;;;;;;;5029778;28;20115;-69
2021/11/09 07:43:33;;;;;;;12.38;6.15;;;;;;;;;;5028813;28;20049;-67
2021/11/09 07:46:02;;;;;;;14.48;6.20;;;;;;;;;;5029933;28;20485;-67
2021/11/09 07:48:30;;;;;;;16.75;7.07;;;;;;;;;;5030309;28;20132;-67
2021/11/09 07:50:59;;;;;;;12.45;6.28;;;;;;;;;;5025519;28;20080;-68
2021/11/09 07:53:30;;;;;;;13.90;6.82;;;;;;;;;;5024723;28;20073;-69
2021/11/09 07:56:11;;;;;;;14.20;6.45;;;;;;;;;;5017599;28;20540;-68
2021/11/09 07:58:46;;;;;;;16.48;7.57;;;;;;;;;;5028369;28;20097;-69
2021/11/09 08:01:17;;;;;;;15.00;6.75;;;;;;;;;;5030682;28;20115;-67
2021/11/09 08:03:48;;;;;;;15.50;6.57;;;;;;;;;;5029768;28;20141;-67
2021/11/09 08:06:21;;;;;;;21.80;6.70;;;;;;;;;;5030741;28;20091;-67
2021/11/09 08:09:06;;;;;;;15.93;6.85;;;;;;;;;;5028906;28;20060;-68
2021/11/09 08:11:38;;;;;;;;;;;;;;;;;;5030459;28;20041;-67
2021/11/09 08:14:08;;;;;;;13.40;5.57;;;;;;;;;;5030041;28;20357;-68
2021/11/09 08:16:37;;;;;;;18.48;6.72;;;;;;;;;;5030824;28;20489;-68
2021/11/09 08:19:05;;;;;;;17.33;6.80;;;;;;;;;;5026043;28;20061;-68
2021/11/09 08:21:35;;;;;;;17.73;7.28;;;;;;;;;;5022173;28;20112;-67
2021/11/09 08:24:05;;;;;;;23.90;8.25;;;;;;;;;;5024600;28;20053;-68
2021/11/09 08:26:33;;;;;;;21.42;7.07;;;;;;;;;;5030462;28;20116;-68
2021/11/09 08:29:06;;;;;;;22.02;7.53;;;;;;;;;;5026480;28;20417;-68
2021/11/09 08:31:37;;;;;;;23.60;7.93;;;;;;;;;;5017651;28;20052;-67
2021/11/09 08:34:06;;;;;;;17.55;7.90;;;;;;;;;;5028951;28;20803;-67
2021/11/09 08:36:35;;;;;;;24.83;8.30;;;;;;;;;;5029243;28;20296;-68
2021/11/09 08:39:05;;;;;;;19.27;6.95;;;;;;;;;;5022435;28;20055;-70
2021/11/09 08:41:39;;;;;;;15.85;7.18;;;;;;;;;;5025221;28;20493;-67
2021/11/09 08:44:10;;;;;;;16.30;7.37;;;;;;;;;;5023247;28;20109;-69
2021/11/09 08:46:42;;;;;;;19.25;7.60;;;;;;;;;;5029072;28;20084;-68
2021/11/09 08:49:12;;;;;;;14.40;6.40;;;;;;;;;;5029437;28;20062;-67
2021/11/09 08:51:41;;;;;;;18.65;7.65;;;;;;;;;;5027899;28;20045;-67
2021/11/09 08:54:13;;;;;;;17.70;7.28;;;;;;;;;;5031311;28;20050;-67
2021/11/09 08:56:57;;;;;;;17.98;7.55;;;;;;;;;;5028543;28;20485;-68
2021/11/09 09:05:01;;;;;;;14.55;6.72;;;;;;;;;;5028663;28;20161;-68
2021/11/09 09:07:30;;;;;;;17.05;7.28;;;;;;;;;;5027962;28;20084;-67
2021/11/09 09:09:59;;;;;;;18.13;8.20;;;;;;;;;;5029210;28;20049;-68
2021/11/09 09:12:28;;;;;;;17.63;7.00;;;;;;;;;;5021830;28;20560;-68
2021/11/09 09:14:57;;;;;;;14.50;7.03;;;;;;;;;;5030825;28;20072;-67
2021/11/09 09:17:28;;;;;;;16.55;7.88;;;;;;;;;;5017297;28;20090;-67
2021/11/09 09:19:59;;;;;;;16.48;7.75;;;;;;;;;;5016133;28;20512;-67
2021/11/09 09:22:31;;;;;;;14.57;6.60;;;;;;;;;;5026982;28;20140;-68
2021/11/09 09:25:13;;;;;;;18.75;6.53;;;;;;;;;;5028852;28;20048;-65
2021/11/09 09:30:51;;;;;;;16.33;6.95;;;;;;;;;;4982734;28;20570;-66
2021/11/09 09:55:40;;;;;;;15.10;7.05;;;;;;;;;;5012775;28;20129;-66
2021/11/09 09:58:11;;;;;;;13.63;6.32;;;;;;;;;;5019158;28;20053;-66
2021/11/09 10:00:40;;;;;;;26.10;7.28;;;;;;;;;;5027604;28;20107;-66
2021/11/09 10:03:09;;;;;;;16.50;6.78;;;;;;;;;;5028101;28;20057;-67
2021/11/09 10:05:41;;;;;;;14.25;6.25;;;;;;;;;;5025604;28;20073;-66
2021/11/09 10:08:12;;;;;;;19.92;5.90;;;;;;;;;;5027766;28;20511;-67
2021/11/09 10:10:41;;;;;;;20.40;5.97;;;;;;;;;;5017249;28;20053;-66
2021/11/09 10:13:12;;;;;;;15.70;6.63;;;;;;;;;;5008511;28;20136;-67
2021/11/09 10:15:45;;;;;;;14.75;5.35;;;;;;;;;;5025746;28;20132;-68
2021/11/09 10:18:15;;;;;;;12.38;5.47;;;;;;;;;;5026409;28;20053;-67
2021/11/09 10:20:47;;;;;;;10.05;4.40;;;;;;;;;;5030306;28;20057;-66
2021/11/09 10:23:18;;;;;;;11.30;5.40;;;;;;;;;;5030369;28;20136;-66
2021/11/09 10:25:46;;;;;;;14.77;6.05;;;;;;;;;;5029726;28;20057;-67
2021/11/09 10:28:18;;;;;;;16.38;4.57;;;;;;;;;;5020167;28;20085;-66
2021/11/09 10:30:48;;;;;;;13.20;4.72;;;;;;;;;;5018308;28;20588;-67
2021/11/09 10:33:19;;;;;;;11.23;5.25;;;;;;;;;;5019757;28;20045;-66
2021/11/09 10:35:49;;;;;;;15.80;5.07;;;;;;;;;;5030994;28;20299;-67
2021/11/09 10:38:19;;;;;;;6.25;4.00;;;;;;;;;;5031866;28;20108;-66
2021/11/09 10:40:49;;;;;;;17.17;4.70;;;;;;;;;;5032232;28;20053;-66
2021/11/09 10:43:19;;;;;;;7.80;3.90;;;;;;;;;;5026480;28;20064;-65
2021/11/09 10:45:48;;;;;;;10.73;4.35;;;;;;;;;;5031464;28;20605;-66
2021/11/09 10:48:18;;;;;;;8.98;2.55;;;;;;;;;;5043502;28;20280;-66
2021/11/09 10:50:48;;;;;;;11.50;3.78;;;;;;;;;;5031149;28;20064;-67
2021/11/09 10:53:20;;;;;;;7.20;3.50;;;;;;;;;;5011865;28;20394;-68
2021/11/09 10:55:55;;;;;;;9.15;3.95;;;;;;;;;;5031242;28;20481;-67
2021/11/09 10:58:44;;;;;;;11.90;3.30;;;;;;;;;;5026193;28;20560;-67
2021/11/09 11:03:59;;;;;;;10.50;4.13;;;;;;;;;;5030453;28;20495;-67
2021/11/09 11:06:29;;;;;;;9.45;2.88;;;;;;;;;;5030785;28;20033;-68
2021/11/09 11:09:00;;;;;;;9.00;3.88;;;;;;;;;;5031149;28;20057;-67
2021/11/09 11:11:29;;;;;;;9.43;3.65;;;;;;;;;;5030359;28;20158;-67
2021/11/09 11:14:07;;;;;;;8.00;3.42;;;;;;;;;;5029850;28;20395;-68
2021/11/09 11:16:39;;;;;;;14.48;3.65;;;;;;;;;;5031108;28;20053;-67
2021/11/09 11:19:08;;;;;;;8.50;3.35;;;;;;;;;;5025723;28;20065;-67
2021/11/09 11:21:37;;;;;;;8.35;2.90;;;;;;;;;;5031430;28;20053;-66
2021/11/09 11:24:09;;;;;;;11.07;3.75;;;;;;;;;;5029445;28;20053;-67
2021/11/09 11:26:38;;;;;;;6.93;3.35;;;;;;;;;;5031361;28;20088;-67
2021/11/09 11:29:07;;;;;;;9.35;4.20;;;;;;;;;;5030587;28;20091;-67
2021/11/09 11:31:36;;;;;;;12.60;3.97;;;;;;;;;;5030121;28;20037;-68
2021/11/09 11:34:05;;;;;;;14.75;4.03;;;;;;;;;;5029224;28;20483;-67
2021/11/09 11:36:33;;;;;;;6.20;3.63;;;;;;;;;;5030996;28;20102;-66
2021/11/09 11:39:03;;;;;;;8.48;3.58;;;;;;;;;;5030461;28;20132;-68
2021/11/09 11:41:34;;;;;;;10.95;4.03;;;;;;;;;;5017584;28;20413;-66
2021/11/09 11:44:04;;;;;;;10.38;4.15;;;;;;;;;;5025888;28;20056;-67
2021/11/09 11:46:49;;;;;;;7.88;3.60;;;;;;;;;;5030625;28;20077;-66
2021/11/09 11:49:20;;;;;;;10.82;4.25;;;;;;;;;;5030224;28;20049;-66
2021/11/09 11:52:07;;;;;;;12.35;4.63;;;;;;;;;;5031173;28;20233;-66
2021/11/09 11:54:40;;;;;;;9.52;4.70;;;;;;;;;;5026232;28;20146;-67
2021/11/09 11:57:10;;;;;;;9.25;3.78;;;;;;;;;;5030127;28;20525;-66
2021/11/09 11:59:40;;;;;;;7.28;4.00;;;;;;;;;;5030640;28;20045;-67
2021/11/09 12:02:09;;;;;;;13.40;4.95;;;;;;;;;;5025510;28;20042;-67
2021/11/09 12:04:52;;;;;;;11.52;4.88;;;;;;;;;;5027866;28;20045;-67
2021/11/09 12:07:22;;;;;;;14.02;5.80;;;;;;;;;;5030580;28;20041;-67
2021/11/09 12:09:52;;;;;;;11.95;5.35;;;;;;;;;;5029234;28;20049;-67
2021/11/09 12:12:30;;;;;;;17.40;5.85;;;;;;;;;;5029647;28;20065;-67
2021/11/09 12:15:00;;;;;;;13.15;5.43;;;;;;;;;;5028574;28;20049;-68
2021/11/09 12:17:32;;;;;;;13.02;5.45;;;;;;;;;;5030499;28;20053;-68
2021/11/09 12:20:05;;;;;;;12.07;5.70;;;;;;;;;;5024924;28;20566;-67
2021/11/09 12:22:41;;;;;;;10.77;5.30;;;;;;;;;;5029193;28;20080;-67
2021/11/09 12:25:11;;;;;;;15.25;5.43;;;;;;;;;;5030053;28;20045;-67
2021/11/09 12:27:56;;;;;;;15.95;6.10;;;;;;;;;;5029817;28;20049;-67
2021/11/09 12:30:40;;;;;;;16.38;6.25;;;;;;;;;;5029079;28;20667;-66
2021/11/09 12:33:14;;;;;;;12.93;6.25;;;;;;;;;;5028048;28;20065;-66
2021/11/09 12:35:47;;;;;;;17.30;6.47;;;;;;;;;;5023785;28;20477;-68
2021/11/09 12:38:18;;;;;;;12.55;6.00;;;;;;;;;;5027573;28;20416;-66
2021/11/09 12:40:52;;;;;;;12.90;5.78;;;;;;;;;;5033192;28;20052;-66
2021/11/09 12:43:22;;;;;;;16.85;6.90;;;;;;;;;;5028359;28;20053;-67
2021/11/09 12:46:02;;;;;;;17.00;6.20;;;;;;;;;;5028392;28;20056;-67
2021/11/09 12:48:34;;;;;;;12.00;5.43;;;;;;;;;;5028840;28;20484;-66
2021/11/09 12:51:04;;;;;;;15.95;5.97;;;;;;;;;;5028671;28;20042;-67
2021/11/09 12:53:36;;;;;;;17.63;6.20;;;;;;;;;;5025118;28;20098;-66
2021/11/09 12:56:07;;;;;;;13.07;5.55;;;;;;;;;;5028558;28;20052;-67
2021/11/09 12:58:38;;;;;;;12.35;6.03;;;;;;;;;;5029165;28;20133;-68
2021/11/09 13:01:21;;;;;;;12.63;5.35;;;;;;;;;;5027497;28;20087;-67
2021/11/09 13:04:08;;;;;;;15.18;6.22;;;;;;;;;;5023867;28;20444;-67
2021/11/09 13:06:45;;;;;;;16.98;6.72;;;;;;;;;;5014210;28;20383;-66
2021/11/09 13:09:21;;;;;;;14.75;6.18;;;;;;;;;;5026518;28;20633;-66
2021/11/09 13:11:53;;;;;;;15.05;6.20;;;;;;;;;;5024908;28;20787;-66
2021/11/09 13:14:22;;;;;;;11.93;5.22;;;;;;;;;;5028192;28;20124;-67
2021/11/09 13:17:19;;;;;;;8.35;5.13;;;;;;;;;;5029120;28;20045;-67
2021/11/09 13:19:58;;;;;;;10.18;4.80;;;;;;;;;;5027361;28;20568;-67
2021/11/09 13:22:29;;;;;;;11.32;4.25;;;;;;;;;;5028017;28;20149;-67
2021/11/09 13:24:59;;;;;;;15.00;4.78;;;;;;;;;;5027645;28;20068;-69
2021/11/09 13:27:38;;;;;;;11.50;4.43;;;;;;;;;;5021663;28;20069;-68
2021/11/09 13:30:12;;;;;;;13.25;5.38;;;;;;;;;;5027901;28;20103;-66
2021/11/09 13:32:40;;;;;;;7.57;4.03;;;;;;;;;;5019518;28;20072;-67
2021/11/09 13:35:19;;;;;;;11.65;4.47;;;;;;;;;;5026751;28;20088;-67
2021/11/09 13:37:48;;;;;;;7.65;4.65;;;;;;;;;;5026770;28;20073;-67
2021/11/09 13:40:18;;;;;;;9.85;4.68;;;;;;;;;;5011814;28;20073;-66
2021/11/09 13:42:58;;;;;;;9.02;4.90;;;;;;;;;;5028184;28;20087;-67
2021/11/09 13:45:26;;;;;;;7.97;4.13;;;;;;;;;;5027389;28;20087;-67
2021/11/09 13:47:55;;;;;;;11.18;4.60;;;;;;;;;;5028738;28;20448;-67
2021/11/09 13:50:26;;;;;;;7.75;4.72;;;;;;;;;;5029250;28;20087;-66
2021/11/09 13:52:56;;;;;;;10.55;4.93;;;;;;;;;;5021318;28;20149;-69
2021/11/09 13:55:25;;;;;;;11.25;4.68;;;;;;;;;;5028429;28;20111;-67
2021/11/09 13:57:53;;;;;;;9.90;4.70;;;;;;;;;;5029678;28;20045;-68
2021/11/09 14:00:25;;;;;;;10.93;4.78;;;;;;;;;;5028670;28;20802;-67
2021/11/09 14:03:12;;;;;;;10.63;4.70;;;;;;;;;;5023019;28;20050;-68
2021/11/09 14:08:47;;;;;;;11.80;5.07;;;;;;;;;;5024813;28;20139;-67
2021/11/09 14:16:50;;;;;;;12.82;4.65;;;;;;;;;;5030941;28;20049;-67
2021/11/09 14:19:27;;;;;;;10.00;4.75;;;;;;;;;;5030325;28;20061;-67
2021/11/09 14:21:58;;;;;;;15.95;4.85;;;;;;;;;;5027634;28;20077;-67
2021/11/09 14:24:28;;;;;;;10.98;4.68;;;;;;;;;;5029196;28;20049;-67
2021/11/09 14:27:05;;;;;;;11.57;4.30;;;;;;;;;;5024069;28;20135;-67
2021/11/09 14:29:36;;;;;;;15.45;5.13;;;;;;;;;;5022991;28;20041;-67
2021/11/09 14:32:08;;;;;;;8.38;4.43;;;;;;;;;;5033705;28;20053;-66
2021/11/09 14:34:37;;;;;;;9.77;4.55;;;;;;;;;;5030718;28;20843;-67
2021/11/09 14:37:18;;;;;;;14.88;5.78;;;;;;;;;;5019097;28;20066;-67
2021/11/09 14:39:57;;;;;;;9.43;4.60;;;;;;;;;;5025114;28;20045;-67
2021/11/09 14:42:38;;;;;;;8.45;4.68;;;;;;;;;;5030609;28;20045;-67
2021/11/09 14:45:17;;;;;;;12.90;4.63;;;;;;;;;;5029811;28;20140;-67
2021/11/09 14:47:48;;;;;;;9.38;4.25;;;;;;;;;;5025871;28;20056;-69
2021/11/09 14:50:25;;;;;;;7.60;3.88;;;;;;;;;;5023225;28;20128;-67
2021/11/09 14:53:05;;;;;;;11.98;3.90;;;;;;;;;;5024513;28;20130;-68
2021/11/09 14:55:41;;;;;;;13.98;4.10;;;;;;;;;;5025603;28;20107;-67
2021/11/09 14:58:24;;;;;;;7.95;4.13;;;;;;;;;;5027384;28;20071;-69
2021/11/09 15:00:54;;;;;;;8.57;3.97;;;;;;;;;;5019479;28;20115;-67
2021/11/09 15:03:23;;;;;;;7.18;3.40;;;;;;;;;;5029550;28;20123;-67
2021/11/09 15:05:53;;;;;;;14.18;4.15;;;;;;;;;;5030679;28;20489;-67
2021/11/09 15:08:30;;;;;;;8.45;4.40;;;;;;;;;;5015744;28;20512;-67
2021/11/09 15:11:13;;;;;;;7.25;3.65;;;;;;;;;;5030567;28;20061;-68
2021/11/09 15:28:08;;;;;;;5.82;3.70;;;;;;;;;;5027468;28;20076;-67
2021/11/09 15:30:40;;;;;;;7.38;3.35;;;;;;;;;;5026950;28;20095;-67
2021/11/09 15:33:19;;;;;;;11.05;3.58;;;;;;;;;;5026901;28;20042;-68
2021/11/09 15:36:06;;;;;;;7.63;3.78;;;;;;;;;;5013876;28;20069;-67
2021/11/09 15:38:36;;;;;;;5.47;2.83;;;;;;;;;;5026045;28;20047;-67
2021/11/09 15:41:06;;;;;;;8.20;3.58;;;;;;;;;;5016870;28;20049;-67
2021/11/09 15:43:35;;;;;;;12.20;4.00;;;;;;;;;;5027983;28;20049;-67
2021/11/09 15:46:04;;;;;;;7.63;3.17;;;;;;;;;;5028944;28;20049;-68
2021/11/09 15:48:33;;;;;;;10.00;3.38;;;;;;;;;;5023869;28;20490;-67
2021/11/09 15:51:02;;;;;;;5.35;2.88;;;;;;;;;;5029637;28;20045;-67
2021/11/09 15:53:31;;;;;;;5.85;3.08;;;;;;;;;;5028880;28;20053;-67
2021/11/09 15:56:00;;;;;;;10.30;3.13;;;;;;;;;;5029482;28;20084;-67
2021/11/09 15:58:30;;;;;;;6.68;3.10;;;;;;;;;;5028597;28;20088;-67
2021/11/09 16:00:59;;;;;;;7.88;3.67;;;;;;;;;;5024987;28;20611;-69
2021/11/09 16:03:28;;;;;;;6.40;2.92;;;;;;;;;;5028562;28;20509;-67
2021/11/09 16:05:57;;;;;;;4.53;2.80;;;;;;;;;;5027871;28;20050;-67
2021/11/09 16:08:27;;;;;;;5.18;3.05;;;;;;;;;;5027596;28;20056;-67
2021/11/09 16:10:56;;;;;;;4.93;2.53;;;;;;;;;;5018317;28;20865;-67
2021/11/09 16:13:31;;;;;;;;;;;;;;;;;;5020881;28;20087;-67
2021/11/09 16:16:01;;;;;;;6.60;3.38;;;;;;;;;;5022193;28;19967;-68
2021/11/09 16:18:29;;;;;;;10.05;3.00;;;;;;;;;;5025501;28;20673;-67
2021/11/09 16:20:58;;;;;;;7.90;3.25;;;;;;;;;;5029062;28;20060;-68
2021/11/09 16:23:27;;;;;;;7.78;2.72;;;;;;;;;;5027688;28;20053;-68
2021/11/09 16:25:56;;;;;;;7.90;2.97;;;;;;;;;;5015953;28;20088;-69
2021/11/09 16:28:25;;;;;;;5.45;2.92;;;;;;;;;;5026524;28;20065;-67
2021/11/09 16:30:53;;;;;;;6.43;2.78;;;;;;;;;;5027959;28;20073;-67
2021/11/09 16:33:27;;;;;;;8.38;3.47;;;;;;;;;;5027850;28;20048;-67
2021/11/09 16:36:01;;;;;;;7.70;2.88;;;;;;;;;;5024579;28;20420;-67
2021/11/09 16:38:32;;;;;;;5.35;2.75;;;;;;;;;;5022397;28;20057;-69
2021/11/09 16:41:02;;;;;;;6.80;3.03;;;;;;;;;;5025795;28;20564;-67
2021/11/09 16:43:36;;;;;;;9.45;3.08;;;;;;;;;;5024727;28;20445;-68
2021/11/09 16:46:17;;;;;;;5.73;2.93;;;;;;;;;;5025570;28;20053;-67
2021/11/09 16:48:56;;;;;;;5.72;2.22;;;;;;;;;;5021520;28;20099;-67
2021/11/09 16:51:26;;;;;;;6.32;3.05;;;;;;;;;;5025329;28;20057;-67
2021/11/09 16:53:59;;;;;;;6.43;2.47;;;;;;;;;;5018986;28;20060;-68